map of GES home
GES - Airport
Location
City:  General Santos, South Cotabato, Philippines
Name:General Santos International Airport
ICAO:RPMR
IATA:GES

Details
Type:Airport (Aerodrome, Airfield)
Use:Public/Civil, International (customs port of entry)
Latitude:603'29"N (6.058003)
Longitude:12505'46"E (125.096033)
Datum:WGS 1984
Elevation:505 ft (154 m)
Variation:0.68W (WMM2015v2 magnetic declination)
-0.09 annual change
Runways:1
Longest:10587 × 148 ft (3227 × 45 m), paved

Time
Time Zone:UTC+8
Local Time:

Weather
METAR:RPMR 040900Z 04010KT 9999 FEW018 SCT080 31/20 Q1011 NOSIG RMK A2985

Related Locations
Nearby:
Farthest:SJDG: 12391 mi / 19942 km
Altamira [Projeto Iriri], PA, BR

Find:

   beyond  
but within

Other Information
Maps:
NOTAMs:
Links:
Sources:

  
  • flag of Philippines
  

Sectional Chart

Flight Planning
at skyvector.com

Satellite Image

Google Maps Satellite view

 

Copyright © 2004-2019 Karl L. Swartz. All rights reserved.
The Great Circle Mapper name and logo are trademarks of the Great Circle Mapper.
All other trademarks mentioned herein belong to their respective owners.
Please see credits for attibutions and further copyright information.

  Follow gcmap on Facebook Follow gcmap on Twitter GCmap on LinkedIn

hCard Microformat

Geo Microformat